»·PEaware :: AAL1049 KSEA-KLAX

AAL1049 :: KSEA-KLAX

FLIGHT INFORMATION

Flight Status: Arrived
Operator:
American Airlines
More flights by this operator :: More flights under this callsign
Pilot: Alex K. (14822)
Aircraft: BOEING 737-800
(B738)
More flights by this aircraft type
Origin: KSEA Seattle-Tacoma Intl
United States
Destination: KLAX Los Angeles Intl
United States
More flights between these airports :: More routes between these airports
Route: +SUMMA1 SUMMA JINMO Q7 JAGWA BURGL IRNMN2
File this flight plan on PilotEdge
Remarks: RMK / SIMBRIEF
Altitude:
(Current/Filed)
35,000ft
Speed:
(Current/Filed)
443kts
Departed: 11-Sep-19 01:46 PM
Arrived: 11-Sep-19 03:52 PM
Distance/Time
Traveled:
829nm/2:06
Distance/Time
To Go:
Arrived

Flight Plot

Page will automatically refresh every two minutes.

Flight plan parsing failed; only flown route is shown


Map Options




Map Legend


Flown Route
Filed Route
Departure Airport
Arrival Airport
Navaid (VOR, NDB)
Fix

Horizontal Profiles

Position Reports

Time Latitude Longitude Heading Altitude Ground
Speed
11-Sep-19 13:22 47.446351 -122.303046 245 434ft 0kts
11-Sep-19 13:23 47.446351 -122.303046 245 434ft 0kts
11-Sep-19 13:24 47.446351 -122.303046 245 434ft 0kts
11-Sep-19 13:25 47.446351 -122.303046 245 434ft 0kts
11-Sep-19 13:26 47.446351 -122.303046 245 434ft 0kts
11-Sep-19 13:27 47.446351 -122.303046 245 434ft 0kts
11-Sep-19 13:28 47.446351 -122.303046 245 434ft 0kts
11-Sep-19 13:29 47.446351 -122.303046 245 434ft 0kts
11-Sep-19 13:30 47.446351 -122.303046 245 434ft 0kts
11-Sep-19 13:31 47.446351 -122.303046 245 434ft 0kts
11-Sep-19 13:32 47.446351 -122.303046 245 434ft 0kts
11-Sep-19 13:33 47.446351 -122.303046 245 434ft 0kts
11-Sep-19 13:34 47.446351 -122.303046 245 434ft 0kts
11-Sep-19 13:35 47.446351 -122.303046 245 434ft 0kts
11-Sep-19 13:36 47.446351 -122.303046 245 434ft 0kts
11-Sep-19 13:37 47.446359 -122.302395 301 434ft 2kts
11-Sep-19 13:38 47.446069 -122.302080 343 434ft 0kts
11-Sep-19 13:39 47.446070 -122.302080 343 434ft 0kts
11-Sep-19 13:40 47.446860 -122.302464 333 434ft 12kts
11-Sep-19 13:41 47.448973 -122.306305 0 434ft 21kts
11-Sep-19 13:42 47.454856 -122.306263 1 434ft 20kts
11-Sep-19 13:43 47.460179 -122.306183 0 434ft 18kts
11-Sep-19 13:44 47.463446 -122.307664 204 434ft 13kts
11-Sep-19 13:45 47.429934 -122.308002 181 917ft 176kts
11-Sep-19 13:46 47.380694 -122.319132 192 2393ft 206kts
11-Sep-19 13:47 47.314240 -122.315773 177 4098ft 266kts
11-Sep-19 13:48 47.239163 -122.307471 166 6809ft 281kts
11-Sep-19 13:49 47.166907 -122.259819 160 9383ft 292kts
11-Sep-19 13:50 47.085807 -122.219294 162 11128ft 329kts
11-Sep-19 13:51 46.997097 -122.175808 162 13648ft 343kts
11-Sep-19 13:52 46.904979 -122.130504 162 16308ft 357kts
11-Sep-19 13:53 46.811898 -122.084573 161 18760ft 369kts
11-Sep-19 13:54 46.712700 -122.035452 161 20997ft 383kts
11-Sep-19 13:55 46.607987 -122.000795 187 23023ft 394kts
11-Sep-19 13:56 46.503225 -122.052080 202 24905ft 404kts
11-Sep-19 13:57 46.396718 -122.110904 197 26586ft 416kts
11-Sep-19 13:58 46.280597 -122.103938 170 28132ft 429kts
11-Sep-19 13:59 46.161873 -122.074977 171 29614ft 438kts
11-Sep-19 14:00 46.040572 -122.046034 171 30972ft 447kts
11-Sep-19 14:01 45.917977 -122.016907 171 32557ft 446kts
11-Sep-19 14:02 45.799985 -121.988995 171 34006ft 443kts
11-Sep-19 14:03 45.678648 -121.960416 171 35323ft 440kts
11-Sep-19 14:04 45.559406 -121.932351 171 36437ft 439kts
11-Sep-19 14:05 45.437831 -121.904118 171 36635ft 453kts
11-Sep-19 14:06 45.313657 -121.875306 171 34646ft 449kts
11-Sep-19 14:07 45.190005 -121.846490 171 33047ft 450kts
11-Sep-19 14:08 45.064391 -121.817671 171 33081ft 458kts
11-Sep-19 14:09 44.937376 -121.788538 171 33043ft 471kts
11-Sep-19 14:10 44.811913 -121.759888 171 33032ft 469kts
11-Sep-19 14:11 44.682993 -121.730584 171 33035ft 469kts
11-Sep-19 14:12 44.554042 -121.701404 171 33040ft 470kts
11-Sep-19 14:13 44.424647 -121.672256 171 33040ft 470kts
11-Sep-19 14:14 44.295597 -121.643274 171 33034ft 470kts
11-Sep-19 14:15 44.166653 -121.613455 170 33032ft 471kts
11-Sep-19 14:16 44.037499 -121.583618 170 33029ft 470kts
11-Sep-19 14:17 43.908723 -121.554001 170 33030ft 469kts
11-Sep-19 14:18 43.784599 -121.525578 170 33025ft 468kts
11-Sep-19 14:19 43.656601 -121.496422 170 32732ft 458kts
11-Sep-19 14:20 43.531184 -121.467821 170 31737ft 457kts
11-Sep-19 14:21 43.405510 -121.439497 170 30747ft 456kts
11-Sep-19 14:22 43.281432 -121.411567 170 29743ft 449kts
11-Sep-19 14:23 43.157459 -121.383778 170 29242ft 458kts
11-Sep-19 14:24 43.031844 -121.355726 170 29249ft 457kts
11-Sep-19 14:25 42.910596 -121.328755 171 29253ft 459kts
11-Sep-19 14:26 42.786980 -121.300751 176 29261ft 465kts
11-Sep-19 14:27 42.654197 -121.272152 176 29257ft 498kts
11-Sep-19 14:28 42.513881 -121.241284 175 29259ft 517kts
11-Sep-19 14:29 42.372121 -121.210286 175 29260ft 517kts
11-Sep-19 14:30 42.230504 -121.179474 175 29258ft 517kts
11-Sep-19 14:31 42.088357 -121.148691 176 29262ft 518kts
11-Sep-19 14:32 41.946397 -121.118067 176 29263ft 513kts
11-Sep-19 14:33 41.807495 -121.088272 176 29255ft 514kts
11-Sep-19 14:34 41.665805 -121.057994 176 29255ft 514kts
11-Sep-19 14:35 41.524923 -121.028025 176 29256ft 515kts
11-Sep-19 14:36 41.384296 -120.998238 176 29252ft 512kts
11-Sep-19 14:37 41.243511 -120.968547 176 29244ft 510kts
11-Sep-19 14:38 41.104018 -120.939268 176 29241ft 512kts
11-Sep-19 14:39 40.963009 -120.914298 183 29239ft 506kts
11-Sep-19 14:40 40.828312 -120.904449 182 29224ft 504kts
11-Sep-19 14:41 40.687947 -120.893216 182 29226ft 505kts
11-Sep-19 14:42 40.548013 -120.882086 182 29228ft 503kts
11-Sep-19 14:43 40.408858 -120.871060 182 29225ft 501kts
11-Sep-19 14:44 40.269896 -120.860097 182 29233ft 500kts
11-Sep-19 14:45 40.130910 -120.849208 182 29229ft 500kts
11-Sep-19 14:46 39.991639 -120.838305 182 29226ft 504kts
11-Sep-19 14:47 39.856564 -120.827777 182 29217ft 497kts
11-Sep-19 14:48 39.718441 -120.817055 182 29210ft 497kts
11-Sep-19 14:49 39.580671 -120.806404 182 29220ft 495kts
11-Sep-19 14:50 39.443306 -120.795824 182 29232ft 494kts
11-Sep-19 14:51 39.306402 -120.785329 182 29259ft 493kts
11-Sep-19 14:52 39.170073 -120.774913 182 29236ft 492kts
11-Sep-19 14:53 39.033307 -120.764507 182 29189ft 491kts
11-Sep-19 14:54 38.899254 -120.754344 181 29155ft 489kts
11-Sep-19 14:55 38.764080 -120.744139 182 29156ft 488kts
11-Sep-19 14:56 38.628821 -120.733961 181 29155ft 487kts
11-Sep-19 14:57 38.493579 -120.723827 181 29143ft 486kts
11-Sep-19 14:58 38.359048 -120.713785 181 29122ft 486kts
11-Sep-19 14:59 38.223972 -120.703738 181 29099ft 486kts
11-Sep-19 15:00 38.088766 -120.693716 181 29096ft 486kts
11-Sep-19 15:01 37.954189 -120.683770 181 29087ft 482kts
11-Sep-19 15:02 37.820128 -120.673918 181 29070ft 483kts
11-Sep-19 15:03 37.686526 -120.664123 181 29068ft 482kts
11-Sep-19 15:04 37.552626 -120.654348 181 29058ft 483kts
11-Sep-19 15:05 37.418746 -120.644605 181 29050ft 482kts
11-Sep-19 15:07 37.285715 -120.624739 169 29055ft 490kts
11-Sep-19 15:08 37.154416 -120.581131 169 29042ft 488kts
11-Sep-19 15:09 37.023311 -120.538643 169 29047ft 488kts
11-Sep-19 15:10 36.891906 -120.496214 169 29049ft 486kts
11-Sep-19 15:11 36.761457 -120.454237 169 29054ft 485kts
11-Sep-19 15:12 36.631277 -120.412497 169 29051ft 485kts
11-Sep-19 15:13 36.500532 -120.370722 169 29051ft 484kts
11-Sep-19 15:14 36.370472 -120.329307 169 29043ft 483kts
11-Sep-19 15:15 36.240518 -120.288072 170 29041ft 483kts
11-Sep-19 15:16 36.110405 -120.246928 170 29041ft 482kts
11-Sep-19 15:17 35.980832 -120.206098 170 29040ft 483kts
11-Sep-19 15:18 35.850929 -120.165298 170 29039ft 483kts
11-Sep-19 15:19 35.720595 -120.124503 169 29035ft 482kts
11-Sep-19 15:20 35.597895 -120.056910 151 29035ft 491kts
11-Sep-19 15:21 35.481419 -119.968528 152 29035ft 492kts
11-Sep-19 15:22 35.364733 -119.880913 152 29040ft 492kts
11-Sep-19 15:23 35.250483 -119.789014 145 29056ft 495kts
11-Sep-19 15:24 35.142311 -119.687188 146 29054ft 481kts
11-Sep-19 15:24 35.055454 -119.606246 146 28509ft 457kts
11-Sep-19 15:26 34.938092 -119.497305 146 27367ft 452kts
11-Sep-19 15:27 34.837342 -119.406589 146 25198ft 452kts
11-Sep-19 15:27 34.756179 -119.333880 147 24557ft 409kts
11-Sep-19 15:28 34.660008 -119.249792 147 22875ft 424kts
11-Sep-19 15:30 34.550684 -119.155319 147 20502ft 402kts
11-Sep-19 15:30 34.476772 -119.089695 146 18888ft 388kts
11-Sep-19 15:31 34.390926 -119.014661 146 17050ft 371kts
11-Sep-19 15:33 34.296249 -118.930972 144 15049ft 353kts
11-Sep-19 15:33 34.229592 -118.870156 144 13636ft 361kts
11-Sep-19 15:34 34.151903 -118.797029 138 11811ft 346kts
11-Sep-19 15:35 34.084352 -118.723020 138 10796ft 304kts
11-Sep-19 15:36 34.030347 -118.652207 108 9893ft 275kts
11-Sep-19 15:37 34.020026 -118.562484 95 9070ft 275kts
11-Sep-19 15:38 34.026516 -118.472115 81 8138ft 269kts
11-Sep-19 15:39 34.036102 -118.382992 81 6897ft 264kts
11-Sep-19 15:40 34.044981 -118.296982 82 5611ft 259kts
11-Sep-19 15:41 34.054328 -118.211336 82 4298ft 252kts
11-Sep-19 15:42 34.063847 -118.132155 82 3203ft 223kts
11-Sep-19 15:43 34.061798 -118.061959 133 2593ft 212kts
11-Sep-19 15:44 34.011686 -118.067432 229 2593ft 208kts
11-Sep-19 15:45 33.981905 -118.126599 256 2583ft 209kts
11-Sep-19 15:46 33.973126 -118.195825 262 2589ft 208kts
11-Sep-19 15:47 33.966150 -118.264777 262 2364ft 196kts
11-Sep-19 15:48 33.960637 -118.318943 262 1502ft 148kts
11-Sep-19 15:49 33.955700 -118.367854 261 696ft 144kts
11-Sep-19 15:50 33.950926 -118.413265 263 110ft 83kts
11-Sep-19 15:51 33.947651 -118.422023 231 110ft 17kts
11-Sep-19 15:52 33.947092 -118.419869 83 110ft 12kts
11-Sep-19 15:53 33.947622 -118.414612 80 110ft 15kts
11-Sep-19 15:54 33.947857 -118.413602 81 110ft 0kts
11-Sep-19 15:55 33.943898 -118.412390 173 110ft 25kts
11-Sep-19 15:56 33.939149 -118.411693 173 110ft 0kts
11-Sep-19 15:57 33.938630 -118.411530 145 110ft 12kts
11-Sep-19 15:58 33.938758 -118.408348 82 110ft 2kts
11-Sep-19 15:59 33.939906 -118.405481 351 110ft 8kts
11-Sep-19 16:00 33.941116 -118.406141 265 110ft 3kts
11-Sep-19 16:01 33.941107 -118.406259 265 110ft 0kts
11-Sep-19 16:02 33.941107 -118.406259 265 110ft 0kts
11-Sep-19 16:03 33.941107 -118.406259 265 110ft 0kts

Navigation Log

Ident Type
Flight plan parsing failed, navigation log unavailable